createdAt,value
2019-04-30T00:01:07.462Z,89.50
2019-04-30T00:05:10.005Z,89.40
2019-04-30T00:09:19.063Z,89.50
2019-04-30T00:13:21.148Z,89.90
2019-04-30T00:17:25.663Z,89.50
2019-04-30T00:21:28.850Z,89.30
2019-04-30T00:25:31.867Z,89.40
2019-04-30T00:29:35.641Z,89.30
2019-04-30T00:33:38.693Z,89.00
2019-04-30T00:37:41.844Z,88.90
2019-04-30T00:41:47.390Z,88.50
2019-04-30T00:45:50.700Z,88.70
2019-04-30T00:49:58.846Z,88.20
2019-04-30T00:53:58.645Z,88.30
2019-04-30T00:58:01.764Z,88.40
2019-04-30T01:02:12.696Z,88.20
2019-04-30T01:06:18.764Z,87.90
2019-04-30T01:10:26.772Z,87.80
2019-04-30T01:14:28.341Z,87.40
2019-04-30T01:18:32.095Z,87.40
2019-04-30T01:22:35.418Z,87.10
2019-04-30T01:26:39.359Z,87.30
2019-04-30T01:30:42.668Z,87.10
2019-04-30T01:34:51.769Z,86.70
2019-04-30T01:38:52.413Z,86.40
2019-04-30T01:42:55.598Z,86.80
2019-04-30T01:47:00.649Z,86.60
2019-04-30T01:51:03.652Z,86.60
2019-04-30T01:55:08.472Z,86.60
2019-04-30T01:59:16.275Z,86.50
2019-04-30T02:03:19.422Z,86.40
2019-04-30T02:07:22.539Z,86.50
2019-04-30T02:11:25.568Z,86.50
2019-04-30T02:15:29.205Z,86.70
2019-04-30T02:19:32.468Z,86.40
2019-04-30T02:23:35.479Z,86.50
2019-04-30T02:27:39.026Z,86.60
2019-04-30T02:31:42.214Z,86.10
2019-04-30T02:35:53.017Z,85.60
2019-04-30T02:39:56.017Z,86.20
2019-04-30T02:43:59.872Z,86.30
2019-04-30T02:48:04.322Z,86.00
2019-04-30T02:52:09.283Z,85.90
2019-04-30T02:56:12.551Z,85.70
2019-04-30T03:00:20.341Z,85.90
2019-04-30T03:04:22.450Z,85.50
2019-04-30T03:08:25.456Z,85.50
2019-04-30T03:12:33.084Z,85.60
2019-04-30T03:16:53.150Z,85.70
2019-04-30T03:21:01.205Z,85.00
2019-04-30T03:25:05.121Z,84.80
2019-04-30T03:29:10.984Z,84.60
2019-04-30T03:33:13.587Z,84.70
2019-04-30T03:37:19.679Z,84.50
2019-04-30T03:41:21.698Z,84.00
2019-04-30T03:45:24.729Z,84.10
2019-04-30T03:49:29.871Z,84.00
2019-04-30T03:53:33.959Z,83.20
2019-04-30T03:57:39.688Z,83.10
2019-04-30T04:01:50.035Z,82.60
2019-04-30T04:06:11.407Z,81.90
2019-04-30T04:10:19.637Z,81.60
2019-04-30T04:14:22.801Z,81.60
2019-04-30T04:18:25.837Z,81.50
2019-04-30T04:22:30.575Z,80.80
2019-04-30T04:26:33.773Z,80.60
2019-04-30T04:30:39.175Z,80.70
2019-04-30T04:34:44.887Z,80.10
2019-04-30T04:38:51.013Z,79.20
2019-04-30T04:42:54.106Z,79.20
2019-04-30T04:47:00.008Z,78.90
2019-04-30T04:51:03.768Z,78.90
2019-04-30T04:55:09.783Z,78.50
2019-04-30T04:59:12.282Z,78.50
2019-04-30T05:03:23.136Z,78.30
2019-04-30T05:07:26.170Z,78.20
2019-04-30T05:11:31.594Z,78.10
2019-04-30T05:15:34.193Z,77.90
2019-04-30T05:19:38.539Z,77.70
2019-04-30T05:23:42.721Z,77.40
2019-04-30T05:27:45.860Z,76.70
2019-04-30T05:31:48.864Z,76.60
2019-04-30T05:35:52.278Z,77.20
2019-04-30T05:39:55.957Z,76.10
2019-04-30T05:43:59.523Z,75.70
2019-04-30T05:48:03.409Z,75.30
2019-04-30T05:52:09.437Z,75.10
2019-04-30T05:56:14.037Z,74.10
2019-04-30T06:00:18.889Z,73.30
2019-04-30T06:04:22.378Z,73.10
2019-04-30T06:08:29.890Z,72.40
2019-04-30T06:12:43.685Z,73.20
2019-04-30T06:16:54.827Z,72.10
2019-04-30T06:20:59.506Z,72.40
2019-04-30T06:25:04.681Z,71.60
2019-04-30T06:29:09.227Z,71.30
2019-04-30T06:33:13.292Z,71.70
2019-04-30T06:37:16.780Z,71.30
2019-04-30T06:41:19.903Z,70.20
2019-04-30T06:45:23.889Z,68.70
2019-04-30T06:49:28.852Z,67.50
2019-04-30T06:53:32.884Z,69.00
2019-04-30T06:57:35.902Z,64.90
2019-04-30T07:01:38.957Z,65.00
2019-04-30T07:05:42.053Z,65.30
2019-04-30T07:10:01.077Z,66.00
2019-04-30T07:14:03.808Z,65.50
2019-04-30T07:18:08.996Z,63.30
2019-04-30T07:22:11.906Z,61.90
2019-04-30T07:26:19.820Z,60.20
2019-04-30T07:30:20.257Z,58.70
2019-04-30T07:34:23.272Z,56.00
2019-04-30T07:38:26.310Z,56.70
2019-04-30T07:42:29.621Z,57.50
2019-04-30T07:46:35.354Z,57.00
2019-04-30T07:50:40.587Z,55.90
2019-04-30T07:54:44.618Z,55.80
2019-04-30T07:58:50.247Z,56.30
2019-04-30T08:02:59.855Z,55.10
2019-04-30T08:07:04.468Z,51.90
2019-04-30T08:11:09.262Z,48.30
2019-04-30T08:15:12.879Z,45.00
2019-04-30T08:19:15.904Z,44.50
2019-04-30T08:23:33.497Z,45.80
2019-04-30T08:27:23.841Z,44.20
2019-04-30T08:31:26.848Z,42.90
2019-04-30T08:35:29.890Z,42.40
2019-04-30T08:39:32.909Z,41.00
2019-04-30T08:43:36.040Z,40.20
2019-04-30T08:47:39.381Z,39.70
2019-04-30T08:51:42.643Z,42.60
2019-04-30T08:55:46.565Z,39.50
2019-04-30T08:59:49.601Z,35.00
2019-04-30T09:03:52.940Z,32.90
2019-04-30T09:07:56.012Z,36.70
2019-04-30T09:11:59.337Z,38.20
2019-04-30T09:16:02.759Z,34.00
2019-04-30T09:20:06.077Z,34.20
2019-04-30T09:24:09.575Z,33.10
2019-04-30T09:28:12.709Z,33.70
2019-04-30T09:32:16.023Z,30.10
2019-04-30T09:36:20.783Z,30.90
2019-04-30T09:40:23.964Z,30.80
2019-04-30T09:44:30.520Z,30.50
2019-04-30T09:48:31.920Z,30.10
2019-04-30T09:52:36.021Z,28.50
2019-04-30T09:56:41.412Z,28.40
2019-04-30T10:00:44.433Z,28.60
2019-04-30T10:04:47.918Z,27.20
2019-04-30T10:08:51.446Z,27.10
2019-04-30T10:12:54.508Z,27.60
2019-04-30T10:17:14.147Z,30.20
2019-04-30T10:21:19.050Z,25.20
2019-04-30T10:25:22.128Z,26.10
2019-04-30T10:29:26.543Z,27.70
2019-04-30T10:33:29.652Z,26.50
2019-04-30T10:37:32.784Z,26.10
2019-04-30T10:41:36.108Z,26.80
2019-04-30T10:45:39.209Z,26.30
2019-04-30T10:49:42.236Z,28.30
2019-04-30T10:53:45.252Z,28.10
2019-04-30T10:57:49.592Z,26.90
2019-04-30T11:01:52.712Z,25.90
2019-04-30T11:05:55.740Z,28.30
2019-04-30T11:09:58.983Z,28.40
2019-04-30T11:14:02.150Z,29.00
2019-04-30T11:18:05.382Z,26.60
2019-04-30T11:22:08.987Z,32.00
2019-04-30T11:26:12.652Z,30.10
2019-04-30T11:30:23.341Z,31.10
2019-04-30T11:34:21.624Z,32.70
2019-04-30T11:38:24.822Z,30.00
2019-04-30T11:42:28.733Z,27.40
2019-04-30T11:46:50.676Z,27.90
2019-04-30T11:50:53.702Z,35.70
2019-04-30T11:54:56.728Z,31.70
2019-04-30T11:59:00.320Z,30.10
2019-04-30T12:03:03.999Z,28.70
2019-04-30T12:07:17.841Z,29.10
2019-04-30T12:11:37.929Z,32.00
2019-04-30T12:15:41.012Z,33.40
2019-04-30T12:19:44.060Z,32.40
2019-04-30T12:23:47.088Z,32.40
2019-04-30T12:27:50.095Z,30.00
2019-04-30T12:31:53.112Z,28.30
2019-04-30T12:35:56.164Z,29.20
2019-04-30T12:39:59.499Z,28.10
2019-04-30T12:44:02.964Z,29.10
2019-04-30T12:48:07.897Z,28.50
2019-04-30T12:52:15.361Z,29.70
2019-04-30T12:56:26.643Z,29.40
2019-04-30T13:00:26.476Z,28.60
2019-04-30T13:04:29.550Z,28.30
2019-04-30T13:08:33.063Z,28.90
2019-04-30T13:12:37.204Z,31.20
2019-04-30T13:16:40.980Z,30.00
2019-04-30T13:20:44.037Z,30.20
2019-04-30T13:24:49.160Z,30.80
2019-04-30T13:28:56.910Z,29.80
2019-04-30T13:33:11.121Z,29.90
2019-04-30T13:37:14.281Z,29.60
2019-04-30T13:41:25.285Z,29.60
2019-04-30T13:45:28.789Z,30.00
2019-04-30T13:49:31.918Z,28.80
2019-04-30T13:53:34.953Z,31.70
2019-04-30T13:57:38.103Z,32.40
2019-04-30T14:01:42.984Z,33.40
2019-04-30T14:05:45.999Z,34.70
2019-04-30T14:09:49.220Z,31.10
2019-04-30T14:13:52.231Z,32.70
2019-04-30T14:17:55.325Z,31.50
2019-04-30T14:21:58.971Z,31.80
2019-04-30T14:26:02.676Z,32.10
2019-04-30T14:30:06.320Z,33.20
2019-04-30T14:34:10.053Z,34.50
2019-04-30T14:38:13.301Z,32.20
2019-04-30T14:42:17.750Z,32.80
2019-04-30T14:46:41.759Z,33.80
2019-04-30T14:50:45.233Z,34.40
2019-04-30T14:55:08.745Z,36.00
2019-04-30T14:59:30.214Z,34.20
2019-04-30T15:03:36.817Z,33.20
2019-04-30T15:07:39.916Z,32.70
2019-04-30T15:11:42.938Z,34.60
2019-04-30T15:15:46.124Z,34.80
2019-04-30T15:19:54.111Z,34.30
2019-04-30T15:23:59.560Z,33.50
2019-04-30T15:28:01.203Z,35.20
2019-04-30T15:32:04.374Z,35.00
2019-04-30T15:36:09.637Z,34.00
2019-04-30T15:40:13.819Z,34.50
2019-04-30T15:44:16.933Z,33.80
2019-04-30T15:48:19.949Z,36.10
2019-04-30T15:52:22.967Z,35.80
2019-04-30T15:56:35.263Z,36.70
2019-04-30T16:00:31.829Z,37.60
2019-04-30T16:04:49.019Z,37.80
2019-04-30T16:08:53.846Z,38.30
2019-04-30T16:12:58.975Z,38.90
2019-04-30T16:17:09.474Z,40.30
2019-04-30T16:21:12.721Z,39.40
2019-04-30T16:25:15.883Z,37.80
2019-04-30T16:29:18.893Z,38.90
2019-04-30T16:33:21.907Z,40.20
2019-04-30T16:37:26.005Z,39.50
2019-04-30T16:41:31.881Z,40.40
2019-04-30T16:45:34.150Z,39.50
2019-04-30T16:49:38.763Z,41.10
2019-04-30T16:53:41.901Z,41.20
2019-04-30T16:57:44.921Z,41.60
2019-04-30T17:01:57.144Z,40.50
2019-04-30T17:05:57.084Z,40.70
2019-04-30T17:10:02.006Z,41.30
2019-04-30T17:14:05.150Z,40.10
2019-04-30T17:18:11.874Z,40.50
2019-04-30T17:22:13.173Z,40.90
2019-04-30T17:26:16.364Z,40.30
2019-04-30T17:30:19.684Z,41.60
2019-04-30T17:34:22.704Z,41.50
2019-04-30T17:38:25.723Z,42.40
2019-04-30T17:42:28.825Z,42.70
2019-04-30T17:46:31.932Z,42.80
2019-04-30T17:50:35.244Z,43.60
2019-04-30T17:54:38.268Z,43.80
2019-04-30T17:58:41.340Z,43.30
2019-04-30T18:02:44.491Z,43.20
2019-04-30T18:06:50.670Z,43.40
2019-04-30T18:10:54.005Z,43.70
2019-04-30T18:14:57.036Z,43.60
2019-04-30T18:19:10.810Z,44.40
2019-04-30T18:23:24.432Z,44.40
2019-04-30T18:27:42.841Z,44.60
2019-04-30T18:31:37.021Z,44.80
2019-04-30T18:35:40.449Z,45.10
2019-04-30T18:39:43.569Z,46.00
2019-04-30T18:43:48.589Z,46.30
2019-04-30T18:47:51.724Z,46.40
2019-04-30T18:51:54.796Z,47.10
2019-04-30T18:55:59.192Z,47.00
2019-04-30T19:00:04.844Z,47.40
2019-04-30T19:04:09.197Z,47.60
2019-04-30T19:08:19.481Z,48.10
2019-04-30T19:12:41.232Z,48.30
2019-04-30T19:17:02.541Z,48.80
2019-04-30T19:21:06.633Z,48.80
2019-04-30T19:25:10.649Z,49.00
2019-04-30T19:29:13.696Z,49.10
2019-04-30T19:33:16.799Z,49.40
2019-04-30T19:37:19.946Z,50.00
2019-04-30T19:41:23.026Z,50.00
2019-04-30T19:45:26.156Z,50.20
2019-04-30T19:49:29.230Z,50.80
2019-04-30T19:53:32.304Z,51.10
2019-04-30T19:57:35.316Z,52.00
2019-04-30T20:01:39.073Z,51.80
2019-04-30T20:05:42.435Z,51.80
2019-04-30T20:09:58.406Z,52.00
2019-04-30T20:13:51.816Z,52.60
2019-04-30T20:17:54.837Z,53.10
2019-04-30T20:21:59.521Z,53.50
2019-04-30T20:26:02.906Z,53.90
2019-04-30T20:30:09.400Z,53.80
2019-04-30T20:34:12.115Z,54.50
2019-04-30T20:38:31.964Z,56.80
2019-04-30T20:42:34.997Z,57.60
2019-04-30T20:46:39.332Z,58.90
2019-04-30T20:50:42.432Z,59.40
2019-04-30T20:54:45.520Z,59.60
2019-04-30T20:58:57.144Z,59.50
2019-04-30T21:02:53.675Z,57.40
2019-04-30T21:06:56.777Z,56.40
2019-04-30T21:11:01.007Z,56.20
2019-04-30T21:15:05.035Z,56.00
2019-04-30T21:19:08.046Z,56.20
2019-04-30T21:23:11.072Z,56.50
2019-04-30T21:27:14.122Z,56.20
2019-04-30T21:31:35.802Z,56.20
2019-04-30T21:35:40.819Z,56.40
2019-04-30T21:39:43.927Z,56.80
2019-04-30T21:43:46.949Z,57.10
2019-04-30T21:47:56.211Z,57.40
2019-04-30T21:51:54.942Z,57.60
2019-04-30T21:55:57.953Z,57.90
2019-04-30T22:00:01.284Z,58.40
2019-04-30T22:04:04.332Z,58.50
2019-04-30T22:08:09.109Z,58.70
2019-04-30T22:12:13.455Z,58.50
2019-04-30T22:16:20.026Z,58.80
2019-04-30T22:20:21.966Z,59.00
2019-04-30T22:24:24.976Z,59.40
2019-04-30T22:28:28.003Z,59.40
2019-04-30T22:32:31.068Z,59.60
2019-04-30T22:36:38.998Z,60.00
2019-04-30T22:40:42.124Z,60.20
2019-04-30T22:44:45.145Z,60.60
2019-04-30T22:48:48.160Z,60.90
2019-04-30T22:52:51.283Z,61.20
2019-04-30T22:56:54.304Z,61.90
2019-04-30T23:00:59.243Z,61.40
2019-04-30T23:05:04.857Z,61.60
2019-04-30T23:09:10.174Z,62.10
2019-04-30T23:13:14.884Z,61.90
2019-04-30T23:17:17.968Z,61.90
2019-04-30T23:21:21.071Z,62.30
2019-04-30T23:25:24.076Z,62.40
2019-04-30T23:29:27.089Z,62.50
2019-04-30T23:33:30.157Z,63.10
2019-04-30T23:37:33.169Z,63.10
2019-04-30T23:41:36.195Z,63.40
2019-04-30T23:45:39.357Z,62.80
2019-04-30T23:49:42.573Z,63.80
2019-04-30T23:53:45.599Z,64.10
2019-04-30T23:57:48.717Z,64.60
